sensor_id;sensor_type;location;lat;lon;timestamp;P1;durP1;ratioP1;P2;durP2;ratioP2
78324;SDS011;67584;51.400;6.692;2024-01-27T00:00:07;8.18;;;3.20;;
78324;SDS011;67584;51.400;6.692;2024-01-27T00:02:37;6.07;;;2.67;;
78324;SDS011;67584;51.400;6.692;2024-01-27T00:05:02;6.25;;;3.33;;
78324;SDS011;67584;51.400;6.692;2024-01-27T00:07:28;4.38;;;3.10;;
78324;SDS011;67584;51.400;6.692;2024-01-27T00:09:54;7.55;;;3.58;;
78324;SDS011;67584;51.400;6.692;2024-01-27T00:12:20;16.55;;;2.92;;
78324;SDS011;67584;51.400;6.692;2024-01-27T00:14:46;7.40;;;4.05;;
78324;SDS011;67584;51.400;6.692;2024-01-27T00:17:12;8.95;;;3.60;;
78324;SDS011;67584;51.400;6.692;2024-01-27T00:19:38;10.50;;;4.30;;
78324;SDS011;67584;51.400;6.692;2024-01-27T00:22:04;8.88;;;3.75;;
78324;SDS011;67584;51.400;6.692;2024-01-27T00:24:30;10.60;;;3.50;;
78324;SDS011;67584;51.400;6.692;2024-01-27T00:26:55;14.45;;;5.05;;
78324;SDS011;67584;51.400;6.692;2024-01-27T00:29:21;13.35;;;4.20;;
78324;SDS011;67584;51.400;6.692;2024-01-27T00:31:47;7.65;;;3.58;;
78324;SDS011;67584;51.400;6.692;2024-01-27T00:34:14;10.38;;;3.78;;
78324;SDS011;67584;51.400;6.692;2024-01-27T00:36:40;13.40;;;4.03;;
78324;SDS011;67584;51.400;6.692;2024-01-27T00:39:07;8.20;;;3.63;;
78324;SDS011;67584;51.400;6.692;2024-01-27T00:41:33;6.57;;;3.88;;
78324;SDS011;67584;51.400;6.692;2024-01-27T00:43:59;10.18;;;4.45;;
78324;SDS011;67584;51.400;6.692;2024-01-27T00:46:25;5.50;;;3.17;;
78324;SDS011;67584;51.400;6.692;2024-01-27T00:48:50;4.70;;;2.95;;
78324;SDS011;67584;51.400;6.692;2024-01-27T00:51:17;7.35;;;4.13;;
78324;SDS011;67584;51.400;6.692;2024-01-27T00:53:42;11.93;;;4.00;;
78324;SDS011;67584;51.400;6.692;2024-01-27T00:56:08;7.20;;;3.65;;
78324;SDS011;67584;51.400;6.692;2024-01-27T00:58:34;11.45;;;4.80;;
78324;SDS011;67584;51.400;6.692;2024-01-27T01:01:00;8.98;;;3.92;;
78324;SDS011;67584;51.400;6.692;2024-01-27T01:03:26;11.60;;;4.05;;
78324;SDS011;67584;51.400;6.692;2024-01-27T01:05:52;10.50;;;4.88;;
78324;SDS011;67584;51.400;6.692;2024-01-27T01:08:18;7.50;;;3.42;;
78324;SDS011;67584;51.400;6.692;2024-01-27T01:10:43;8.75;;;3.88;;
78324;SDS011;67584;51.400;6.692;2024-01-27T01:13:09;9.50;;;3.92;;
78324;SDS011;67584;51.400;6.692;2024-01-27T01:15:35;11.52;;;4.55;;
78324;SDS011;67584;51.400;6.692;2024-01-27T01:18:01;8.82;;;4.18;;
78324;SDS011;67584;51.400;6.692;2024-01-27T01:20:26;7.68;;;3.38;;
78324;SDS011;67584;51.400;6.692;2024-01-27T01:22:53;6.53;;;3.00;;
78324;SDS011;67584;51.400;6.692;2024-01-27T01:25:21;7.28;;;3.42;;
78324;SDS011;67584;51.400;6.692;2024-01-27T01:27:47;10.02;;;3.72;;
78324;SDS011;67584;51.400;6.692;2024-01-27T01:30:15;6.10;;;3.50;;
78324;SDS011;67584;51.400;6.692;2024-01-27T01:32:41;9.77;;;3.75;;
78324;SDS011;67584;51.400;6.692;2024-01-27T01:35:08;8.27;;;4.05;;
78324;SDS011;67584;51.400;6.692;2024-01-27T01:37:35;9.27;;;3.92;;
78324;SDS011;67584;51.400;6.692;2024-01-27T01:40:00;10.07;;;4.03;;
78324;SDS011;67584;51.400;6.692;2024-01-27T01:42:28;8.85;;;4.30;;
78324;SDS011;67584;51.400;6.692;2024-01-27T01:44:54;11.90;;;4.25;;
78324;SDS011;67584;51.400;6.692;2024-01-27T01:47:20;9.57;;;3.80;;
78324;SDS011;67584;51.400;6.692;2024-01-27T01:49:47;6.75;;;3.33;;
78324;SDS011;67584;51.400;6.692;2024-01-27T01:52:14;10.52;;;4.38;;
78324;SDS011;67584;51.400;6.692;2024-01-27T01:54:46;15.02;;;3.75;;
78324;SDS011;67584;51.400;6.692;2024-01-27T01:57:13;11.50;;;3.28;;
78324;SDS011;67584;51.400;6.692;2024-01-27T01:59:39;8.27;;;4.05;;
78324;SDS011;67584;51.400;6.692;2024-01-27T02:02:06;9.82;;;4.50;;
78324;SDS011;67584;51.400;6.692;2024-01-27T02:04:39;4.60;;;2.67;;
78324;SDS011;67584;51.400;6.692;2024-01-27T02:07:09;8.63;;;3.67;;
78324;SDS011;67584;51.400;6.692;2024-01-27T02:09:34;5.13;;;2.58;;
78324;SDS011;67584;51.400;6.692;2024-01-27T02:12:01;6.63;;;3.40;;
78324;SDS011;67584;51.400;6.692;2024-01-27T02:14:27;10.65;;;4.20;;
78324;SDS011;67584;51.400;6.692;2024-01-27T02:16:53;14.05;;;4.25;;
78324;SDS011;67584;51.400;6.692;2024-01-27T02:19:19;7.40;;;3.80;;
78324;SDS011;67584;51.400;6.692;2024-01-27T02:21:45;7.28;;;3.80;;
78324;SDS011;67584;51.400;6.692;2024-01-27T02:27:58;11.13;;;3.92;;
78324;SDS011;67584;51.400;6.692;2024-01-27T02:30:24;8.82;;;3.72;;
78324;SDS011;67584;51.400;6.692;2024-01-27T02:32:50;7.95;;;4.20;;
78324;SDS011;67584;51.400;6.692;2024-01-27T02:35:16;10.40;;;4.47;;
78324;SDS011;67584;51.400;6.692;2024-01-27T02:37:42;10.10;;;4.30;;
78324;SDS011;67584;51.400;6.692;2024-01-27T02:40:08;8.55;;;3.85;;
78324;SDS011;67584;51.400;6.692;2024-01-27T02:42:37;8.07;;;3.90;;
78324;SDS011;67584;51.400;6.692;2024-01-27T02:45:03;9.48;;;4.30;;
78324;SDS011;67584;51.400;6.692;2024-01-27T02:47:29;8.02;;;4.03;;
78324;SDS011;67584;51.400;6.692;2024-01-27T02:49:55;9.38;;;3.97;;
78324;SDS011;67584;51.400;6.692;2024-01-27T02:52:21;8.07;;;3.83;;
78324;SDS011;67584;51.400;6.692;2024-01-27T02:54:47;9.85;;;3.47;;
78324;SDS011;67584;51.400;6.692;2024-01-27T02:57:13;6.28;;;3.65;;
78324;SDS011;67584;51.400;6.692;2024-01-27T02:59:40;8.75;;;3.45;;
78324;SDS011;67584;51.400;6.692;2024-01-27T03:02:06;7.47;;;4.03;;
78324;SDS011;67584;51.400;6.692;2024-01-27T03:04:32;7.60;;;3.78;;
78324;SDS011;67584;51.400;6.692;2024-01-27T03:06:59;9.02;;;3.55;;
78324;SDS011;67584;51.400;6.692;2024-01-27T03:09:25;8.55;;;3.50;;
78324;SDS011;67584;51.400;6.692;2024-01-27T03:11:53;11.57;;;4.22;;
78324;SDS011;67584;51.400;6.692;2024-01-27T03:14:19;10.52;;;3.15;;
78324;SDS011;67584;51.400;6.692;2024-01-27T03:16:45;10.10;;;4.20;;
78324;SDS011;67584;51.400;6.692;2024-01-27T03:19:10;8.40;;;4.60;;
78324;SDS011;67584;51.400;6.692;2024-01-27T03:21:36;6.85;;;3.53;;
78324;SDS011;67584;51.400;6.692;2024-01-27T03:24:02;11.02;;;4.80;;
78324;SDS011;67584;51.400;6.692;2024-01-27T03:26:28;10.77;;;4.53;;
78324;SDS011;67584;51.400;6.692;2024-01-27T03:28:53;9.10;;;4.63;;
78324;SDS011;67584;51.400;6.692;2024-01-27T03:31:19;12.63;;;4.13;;
78324;SDS011;67584;51.400;6.692;2024-01-27T03:33:45;12.93;;;4.88;;
78324;SDS011;67584;51.400;6.692;2024-01-27T03:36:11;9.85;;;4.53;;
78324;SDS011;67584;51.400;6.692;2024-01-27T03:38:38;10.77;;;4.25;;
78324;SDS011;67584;51.400;6.692;2024-01-27T03:41:05;10.68;;;4.55;;
78324;SDS011;67584;51.400;6.692;2024-01-27T03:43:31;10.23;;;4.82;;
78324;SDS011;67584;51.400;6.692;2024-01-27T03:45:57;8.05;;;4.38;;
78324;SDS011;67584;51.400;6.692;2024-01-27T03:48:23;10.63;;;4.93;;
78324;SDS011;67584;51.400;6.692;2024-01-27T03:50:48;11.40;;;4.82;;
78324;SDS011;67584;51.400;6.692;2024-01-27T03:53:14;11.45;;;5.10;;
78324;SDS011;67584;51.400;6.692;2024-01-27T03:55:40;8.75;;;4.03;;
78324;SDS011;67584;51.400;6.692;2024-01-27T03:58:05;13.63;;;5.43;;
78324;SDS011;67584;51.400;6.692;2024-01-27T04:00:31;7.32;;;4.68;;
78324;SDS011;67584;51.400;6.692;2024-01-27T04:02:58;8.68;;;5.18;;
78324;SDS011;67584;51.400;6.692;2024-01-27T04:05:24;11.38;;;4.95;;
78324;SDS011;67584;51.400;6.692;2024-01-27T04:07:51;11.25;;;5.07;;
78324;SDS011;67584;51.400;6.692;2024-01-27T04:10:17;9.38;;;5.32;;
78324;SDS011;67584;51.400;6.692;2024-01-27T04:12:43;10.10;;;4.28;;
78324;SDS011;67584;51.400;6.692;2024-01-27T04:15:12;9.30;;;4.32;;
78324;SDS011;67584;51.400;6.692;2024-01-27T04:17:39;9.30;;;4.47;;
78324;SDS011;67584;51.400;6.692;2024-01-27T04:20:07;7.72;;;4.75;;
78324;SDS011;67584;51.400;6.692;2024-01-27T04:22:34;10.20;;;4.80;;
78324;SDS011;67584;51.400;6.692;2024-01-27T04:24:59;6.70;;;3.90;;
78324;SDS011;67584;51.400;6.692;2024-01-27T04:27:29;7.97;;;4.90;;
78324;SDS011;67584;51.400;6.692;2024-01-27T04:29:55;8.18;;;4.90;;
78324;SDS011;67584;51.400;6.692;2024-01-27T04:32:21;7.78;;;4.80;;
78324;SDS011;67584;51.400;6.692;2024-01-27T04:34:47;9.55;;;5.65;;
78324;SDS011;67584;51.400;6.692;2024-01-27T04:37:13;8.57;;;4.35;;
78324;SDS011;67584;51.400;6.692;2024-01-27T04:39:39;10.25;;;5.00;;
78324;SDS011;67584;51.400;6.692;2024-01-27T04:42:05;10.48;;;4.70;;
78324;SDS011;67584;51.400;6.692;2024-01-27T04:47:00;16.15;;;5.35;;
78324;SDS011;67584;51.400;6.692;2024-01-27T04:49:25;10.07;;;4.93;;
78324;SDS011;67584;51.400;6.692;2024-01-27T04:51:51;9.40;;;4.55;;
78324;SDS011;67584;51.400;6.692;2024-01-27T04:54:17;11.40;;;5.38;;
78324;SDS011;67584;51.400;6.692;2024-01-27T04:56:42;9.73;;;5.45;;
78324;SDS011;67584;51.400;6.692;2024-01-27T04:59:08;6.63;;;4.90;;
78324;SDS011;67584;51.400;6.692;2024-01-27T05:01:34;8.48;;;4.75;;
78324;SDS011;67584;51.400;6.692;2024-01-27T05:03:59;14.25;;;5.07;;
78324;SDS011;67584;51.400;6.692;2024-01-27T05:06:25;7.45;;;4.60;;
78324;SDS011;67584;51.400;6.692;2024-01-27T05:08:51;10.40;;;4.85;;
78324;SDS011;67584;51.400;6.692;2024-01-27T05:11:29;9.20;;;5.35;;
78324;SDS011;67584;51.400;6.692;2024-01-27T05:13:56;8.77;;;4.88;;
78324;SDS011;67584;51.400;6.692;2024-01-27T05:16:22;8.50;;;4.65;;
78324;SDS011;67584;51.400;6.692;2024-01-27T05:18:47;8.20;;;4.70;;
78324;SDS011;67584;51.400;6.692;2024-01-27T05:21:13;10.90;;;4.78;;
78324;SDS011;67584;51.400;6.692;2024-01-27T05:23:39;10.38;;;4.75;;
78324;SDS011;67584;51.400;6.692;2024-01-27T05:26:05;14.20;;;4.95;;
78324;SDS011;67584;51.400;6.692;2024-01-27T05:28:31;7.50;;;4.97;;
78324;SDS011;67584;51.400;6.692;2024-01-27T05:30:58;10.40;;;4.78;;
78324;SDS011;67584;51.400;6.692;2024-01-27T05:33:24;9.63;;;4.53;;
78324;SDS011;67584;51.400;6.692;2024-01-27T05:35:49;9.38;;;4.15;;
78324;SDS011;67584;51.400;6.692;2024-01-27T05:38:15;9.68;;;4.25;;
78324;SDS011;67584;51.400;6.692;2024-01-27T05:40:41;10.85;;;4.32;;
78324;SDS011;67584;51.400;6.692;2024-01-27T05:43:07;12.10;;;4.72;;
78324;SDS011;67584;51.400;6.692;2024-01-27T05:45:33;9.18;;;4.45;;
78324;SDS011;67584;51.400;6.692;2024-01-27T05:47:58;14.30;;;5.85;;
78324;SDS011;67584;51.400;6.692;2024-01-27T05:50:24;12.25;;;4.85;;
78324;SDS011;67584;51.400;6.692;2024-01-27T05:52:51;10.15;;;4.75;;
78324;SDS011;67584;51.400;6.692;2024-01-27T05:55:17;13.80;;;5.47;;
78324;SDS011;67584;51.400;6.692;2024-01-27T05:57:42;8.45;;;5.00;;
78324;SDS011;67584;51.400;6.692;2024-01-27T06:00:08;9.05;;;4.78;;
78324;SDS011;67584;51.400;6.692;2024-01-27T06:02:35;11.65;;;3.88;;
78324;SDS011;67584;51.400;6.692;2024-01-27T06:05:02;13.38;;;4.57;;
78324;SDS011;67584;51.400;6.692;2024-01-27T06:07:28;4.55;;;2.97;;
78324;SDS011;67584;51.400;6.692;2024-01-27T06:09:53;10.40;;;4.82;;
78324;SDS011;67584;51.400;6.692;2024-01-27T06:12:19;9.07;;;4.50;;
78324;SDS011;67584;51.400;6.692;2024-01-27T06:14:45;7.32;;;4.47;;
78324;SDS011;67584;51.400;6.692;2024-01-27T06:17:11;8.93;;;4.03;;
78324;SDS011;67584;51.400;6.692;2024-01-27T06:19:40;13.45;;;5.30;;
78324;SDS011;67584;51.400;6.692;2024-01-27T06:22:05;8.30;;;5.13;;
78324;SDS011;67584;51.400;6.692;2024-01-27T06:24:31;10.20;;;5.78;;
78324;SDS011;67584;51.400;6.692;2024-01-27T06:26:57;10.95;;;5.13;;
78324;SDS011;67584;51.400;6.692;2024-01-27T06:29:22;9.93;;;4.85;;
78324;SDS011;67584;51.400;6.692;2024-01-27T06:31:48;10.23;;;4.90;;
78324;SDS011;67584;51.400;6.692;2024-01-27T06:34:14;9.23;;;4.43;;
78324;SDS011;67584;51.400;6.692;2024-01-27T06:36:39;10.60;;;4.07;;
78324;SDS011;67584;51.400;6.692;2024-01-27T06:39:05;10.75;;;4.78;;
78324;SDS011;67584;51.400;6.692;2024-01-27T06:41:32;8.52;;;5.07;;
78324;SDS011;67584;51.400;6.692;2024-01-27T06:43:58;11.13;;;4.20;;
78324;SDS011;67584;51.400;6.692;2024-01-27T06:46:24;11.60;;;4.95;;
78324;SDS011;67584;51.400;6.692;2024-01-27T06:48:50;9.77;;;4.05;;
78324;SDS011;67584;51.400;6.692;2024-01-27T06:51:15;8.00;;;5.10;;
78324;SDS011;67584;51.400;6.692;2024-01-27T06:53:41;11.75;;;4.90;;
78324;SDS011;67584;51.400;6.692;2024-01-27T06:56:07;10.27;;;4.60;;
78324;SDS011;67584;51.400;6.692;2024-01-27T06:58:33;11.32;;;4.55;;
78324;SDS011;67584;51.400;6.692;2024-01-27T07:00:59;10.05;;;4.57;;
78324;SDS011;67584;51.400;6.692;2024-01-27T07:03:25;8.45;;;4.70;;
78324;SDS011;67584;51.400;6.692;2024-01-27T07:05:54;12.95;;;4.97;;
78324;SDS011;67584;51.400;6.692;2024-01-27T07:08:20;10.77;;;5.28;;
78324;SDS011;67584;51.400;6.692;2024-01-27T07:10:46;13.80;;;5.63;;
78324;SDS011;67584;51.400;6.692;2024-01-27T07:13:12;9.52;;;5.85;;
78324;SDS011;67584;51.400;6.692;2024-01-27T07:15:38;11.93;;;5.80;;
78324;SDS011;67584;51.400;6.692;2024-01-27T07:18:04;10.07;;;5.43;;
78324;SDS011;67584;51.400;6.692;2024-01-27T07:20:30;11.07;;;5.68;;
78324;SDS011;67584;51.400;6.692;2024-01-27T07:22:56;9.57;;;6.72;;
78324;SDS011;67584;51.400;6.692;2024-01-27T07:25:21;11.52;;;5.80;;
78324;SDS011;67584;51.400;6.692;2024-01-27T07:27:47;8.63;;;5.00;;
78324;SDS011;67584;51.400;6.692;2024-01-27T07:30:13;11.20;;;5.57;;
78324;SDS011;67584;51.400;6.692;2024-01-27T07:32:39;6.68;;;4.72;;
78324;SDS011;67584;51.400;6.692;2024-01-27T07:35:06;10.30;;;5.20;;
78324;SDS011;67584;51.400;6.692;2024-01-27T07:37:31;10.25;;;5.57;;
78324;SDS011;67584;51.400;6.692;2024-01-27T07:39:57;11.80;;;5.50;;
78324;SDS011;67584;51.400;6.692;2024-01-27T07:42:23;12.82;;;5.05;;
78324;SDS011;67584;51.400;6.692;2024-01-27T07:44:48;8.45;;;4.50;;
78324;SDS011;67584;51.400;6.692;2024-01-27T07:47:14;8.48;;;4.70;;
78324;SDS011;67584;51.400;6.692;2024-01-27T07:49:40;6.68;;;5.22;;
78324;SDS011;67584;51.400;6.692;2024-01-27T07:52:06;10.38;;;4.55;;
78324;SDS011;67584;51.400;6.692;2024-01-27T07:54:31;10.95;;;4.68;;
78324;SDS011;67584;51.400;6.692;2024-01-27T07:56:58;6.10;;;4.40;;
78324;SDS011;67584;51.400;6.692;2024-01-27T07:59:24;13.02;;;6.20;;
78324;SDS011;67584;51.400;6.692;2024-01-27T08:01:50;14.57;;;4.88;;
78324;SDS011;67584;51.400;6.692;2024-01-27T08:04:16;11.43;;;5.22;;
78324;SDS011;67584;51.400;6.692;2024-01-27T08:06:46;8.85;;;5.35;;
78324;SDS011;67584;51.400;6.692;2024-01-27T08:09:15;12.80;;;5.40;;
78324;SDS011;67584;51.400;6.692;2024-01-27T08:11:42;8.52;;;5.55;;
78324;SDS011;67584;51.400;6.692;2024-01-27T08:14:08;8.55;;;4.88;;
78324;SDS011;67584;51.400;6.692;2024-01-27T08:16:34;6.15;;;4.25;;
78324;SDS011;67584;51.400;6.692;2024-01-27T08:19:00;8.32;;;4.28;;
78324;SDS011;67584;51.400;6.692;2024-01-27T08:21:25;10.88;;;4.90;;
78324;SDS011;67584;51.400;6.692;2024-01-27T08:23:51;13.52;;;4.78;;
78324;SDS011;67584;51.400;6.692;2024-01-27T08:26:17;11.63;;;5.90;;
78324;SDS011;67584;51.400;6.692;2024-01-27T08:28:45;10.73;;;4.35;;
78324;SDS011;67584;51.400;6.692;2024-01-27T08:31:12;8.43;;;4.63;;
78324;SDS011;67584;51.400;6.692;2024-01-27T08:33:38;8.40;;;4.25;;
78324;SDS011;67584;51.400;6.692;2024-01-27T08:36:03;10.73;;;5.32;;
78324;SDS011;67584;51.400;6.692;2024-01-27T08:38:29;13.32;;;5.65;;
78324;SDS011;67584;51.400;6.692;2024-01-27T08:40:55;12.90;;;6.13;;
78324;SDS011;67584;51.400;6.692;2024-01-27T08:43:20;9.63;;;5.07;;
78324;SDS011;67584;51.400;6.692;2024-01-27T08:45:46;11.98;;;5.65;;
78324;SDS011;67584;51.400;6.692;2024-01-27T08:48:12;11.93;;;3.88;;
78324;SDS011;67584;51.400;6.692;2024-01-27T08:50:38;11.52;;;5.70;;
78324;SDS011;67584;51.400;6.692;2024-01-27T08:53:04;13.57;;;5.30;;
78324;SDS011;67584;51.400;6.692;2024-01-27T08:55:30;13.23;;;5.40;;
78324;SDS011;67584;51.400;6.692;2024-01-27T08:57:56;8.75;;;4.65;;
78324;SDS011;67584;51.400;6.692;2024-01-27T09:00:22;10.93;;;4.93;;
78324;SDS011;67584;51.400;6.692;2024-01-27T09:02:47;7.82;;;5.10;;
78324;SDS011;67584;51.400;6.692;2024-01-27T09:05:14;6.68;;;4.10;;
78324;SDS011;67584;51.400;6.692;2024-01-27T09:07:40;10.27;;;4.97;;
78324;SDS011;67584;51.400;6.692;2024-01-27T09:10:05;8.73;;;5.07;;
78324;SDS011;67584;51.400;6.692;2024-01-27T09:12:32;5.85;;;3.50;;
78324;SDS011;67584;51.400;6.692;2024-01-27T09:14:58;10.05;;;3.90;;
78324;SDS011;67584;51.400;6.692;2024-01-27T09:17:24;11.18;;;4.07;;
78324;SDS011;67584;51.400;6.692;2024-01-27T09:19:50;8.70;;;4.28;;
78324;SDS011;67584;51.400;6.692;2024-01-27T09:22:16;13.10;;;5.30;;
78324;SDS011;67584;51.400;6.692;2024-01-27T09:24:42;7.03;;;4.07;;
78324;SDS011;67584;51.400;6.692;2024-01-27T09:27:07;7.30;;;4.78;;
78324;SDS011;67584;51.400;6.692;2024-01-27T09:29:33;12.40;;;5.05;;
78324;SDS011;67584;51.400;6.692;2024-01-27T09:31:59;9.38;;;4.70;;
78324;SDS011;67584;51.400;6.692;2024-01-27T09:34:24;11.88;;;4.75;;
78324;SDS011;67584;51.400;6.692;2024-01-27T09:36:50;9.88;;;5.22;;
78324;SDS011;67584;51.400;6.692;2024-01-27T09:39:16;14.13;;;5.50;;
78324;SDS011;67584;51.400;6.692;2024-01-27T09:41:42;14.05;;;6.22;;
78324;SDS011;67584;51.400;6.692;2024-01-27T09:44:08;13.32;;;5.05;;
78324;SDS011;67584;51.400;6.692;2024-01-27T09:46:37;9.20;;;4.80;;
78324;SDS011;67584;51.400;6.692;2024-01-27T09:49:04;15.00;;;5.38;;
78324;SDS011;67584;51.400;6.692;2024-01-27T09:51:30;20.15;;;5.30;;
78324;SDS011;67584;51.400;6.692;2024-01-27T09:53:56;8.95;;;4.45;;
78324;SDS011;67584;51.400;6.692;2024-01-27T09:56:22;13.88;;;5.03;;
78324;SDS011;67584;51.400;6.692;2024-01-27T09:58:49;9.75;;;4.72;;
78324;SDS011;67584;51.400;6.692;2024-01-27T10:01:18;8.38;;;4.82;;
78324;SDS011;67584;51.400;6.692;2024-01-27T10:03:46;10.63;;;5.25;;
78324;SDS011;67584;51.400;6.692;2024-01-27T10:06:12;10.43;;;4.90;;
78324;SDS011;67584;51.400;6.692;2024-01-27T10:08:39;12.40;;;4.35;;
78324;SDS011;67584;51.400;6.692;2024-01-27T10:11:08;6.03;;;4.03;;
78324;SDS011;67584;51.400;6.692;2024-01-27T10:13:36;10.18;;;4.25;;
78324;SDS011;67584;51.400;6.692;2024-01-27T10:16:02;7.88;;;4.88;;
78324;SDS011;67584;51.400;6.692;2024-01-27T10:18:29;8.35;;;4.35;;
78324;SDS011;67584;51.400;6.692;2024-01-27T10:20:55;8.70;;;4.28;;
78324;SDS011;67584;51.400;6.692;2024-01-27T10:23:21;8.98;;;4.57;;
78324;SDS011;67584;51.400;6.692;2024-01-27T10:25:47;7.25;;;4.47;;
78324;SDS011;67584;51.400;6.692;2024-01-27T10:28:13;8.27;;;3.95;;
78324;SDS011;67584;51.400;6.692;2024-01-27T10:30:38;8.35;;;3.50;;
78324;SDS011;67584;51.400;6.692;2024-01-27T10:33:04;10.13;;;4.57;;
78324;SDS011;67584;51.400;6.692;2024-01-27T10:35:32;7.72;;;4.07;;
78324;SDS011;67584;51.400;6.692;2024-01-27T10:37:58;5.95;;;3.22;;
78324;SDS011;67584;51.400;6.692;2024-01-27T10:40:24;13.65;;;5.28;;
78324;SDS011;67584;51.400;6.692;2024-01-27T10:43:11;5.82;;;3.60;;
78324;SDS011;67584;51.400;6.692;2024-01-27T10:45:37;8.73;;;4.80;;
78324;SDS011;67584;51.400;6.692;2024-01-27T10:48:05;12.48;;;4.75;;
78324;SDS011;67584;51.400;6.692;2024-01-27T10:50:35;12.65;;;4.60;;
78324;SDS011;67584;51.400;6.692;2024-01-27T10:53:03;15.30;;;4.55;;
78324;SDS011;67584;51.400;6.692;2024-01-27T10:55:32;13.23;;;5.28;;
78324;SDS011;67584;51.400;6.692;2024-01-27T10:57:59;9.50;;;4.63;;
78324;SDS011;67584;51.400;6.692;2024-01-27T11:00:27;13.75;;;4.95;;
78324;SDS011;67584;51.400;6.692;2024-01-27T11:02:59;11.23;;;4.53;;
78324;SDS011;67584;51.400;6.692;2024-01-27T11:05:27;12.63;;;4.40;;
78324;SDS011;67584;51.400;6.692;2024-01-27T11:07:57;12.38;;;4.57;;
78324;SDS011;67584;51.400;6.692;2024-01-27T11:10:24;9.68;;;4.40;;
78324;SDS011;67584;51.400;6.692;2024-01-27T11:12:51;10.77;;;4.75;;
78324;SDS011;67584;51.400;6.692;2024-01-27T11:15:20;7.22;;;3.30;;
78324;SDS011;67584;51.400;6.692;2024-01-27T11:17:46;9.43;;;3.83;;
78324;SDS011;67584;51.400;6.692;2024-01-27T11:20:12;9.63;;;3.90;;
78324;SDS011;67584;51.400;6.692;2024-01-27T11:22:39;10.40;;;4.25;;
78324;SDS011;67584;51.400;6.692;2024-01-27T11:27:43;11.30;;;4.53;;
78324;SDS011;67584;51.400;6.692;2024-01-27T11:30:27;8.00;;;3.85;;
78324;SDS011;67584;51.400;6.692;2024-01-27T11:32:54;7.80;;;4.60;;
78324;SDS011;67584;51.400;6.692;2024-01-27T11:35:21;9.25;;;4.90;;
78324;SDS011;67584;51.400;6.692;2024-01-27T11:37:47;10.07;;;4.20;;
78324;SDS011;67584;51.400;6.692;2024-01-27T11:40:13;11.32;;;4.55;;
78324;SDS011;67584;51.400;6.692;2024-01-27T11:42:40;14.68;;;4.32;;
78324;SDS011;67584;51.400;6.692;2024-01-27T11:45:18;7.82;;;3.58;;
78324;SDS011;67584;51.400;6.692;2024-01-27T11:47:44;9.10;;;3.72;;
78324;SDS011;67584;51.400;6.692;2024-01-27T11:50:13;10.40;;;3.47;;
78324;SDS011;67584;51.400;6.692;2024-01-27T11:52:41;9.80;;;3.60;;
78324;SDS011;67584;51.400;6.692;2024-01-27T11:55:08;8.57;;;3.97;;
78324;SDS011;67584;51.400;6.692;2024-01-27T11:57:36;6.80;;;3.30;;
78324;SDS011;67584;51.400;6.692;2024-01-27T12:00:02;8.27;;;4.03;;
78324;SDS011;67584;51.400;6.692;2024-01-27T12:02:31;7.03;;;3.60;;
78324;SDS011;67584;51.400;6.692;2024-01-27T12:04:57;8.43;;;3.58;;
78324;SDS011;67584;51.400;6.692;2024-01-27T12:07:23;8.38;;;3.05;;
78324;SDS011;67584;51.400;6.692;2024-01-27T12:09:51;5.57;;;2.80;;
78324;SDS011;67584;51.400;6.692;2024-01-27T12:12:16;6.75;;;2.65;;
78324;SDS011;67584;51.400;6.692;2024-01-27T12:14:52;12.20;;;3.22;;
78324;SDS011;67584;51.400;6.692;2024-01-27T12:19:47;10.30;;;3.60;;
78324;SDS011;67584;51.400;6.692;2024-01-27T12:22:20;7.93;;;3.70;;
78324;SDS011;67584;51.400;6.692;2024-01-27T12:25:12;9.30;;;3.53;;
78324;SDS011;67584;51.400;6.692;2024-01-27T12:27:46;8.13;;;3.42;;
78324;SDS011;67584;51.400;6.692;2024-01-27T12:30:12;7.55;;;3.05;;
78324;SDS011;67584;51.400;6.692;2024-01-27T12:32:38;7.55;;;3.17;;
78324;SDS011;67584;51.400;6.692;2024-01-27T12:35:04;9.90;;;3.30;;
78324;SDS011;67584;51.400;6.692;2024-01-27T12:37:30;6.35;;;3.60;;
78324;SDS011;67584;51.400;6.692;2024-01-27T12:39:56;12.82;;;4.20;;
78324;SDS011;67584;51.400;6.692;2024-01-27T12:42:22;7.78;;;2.95;;
78324;SDS011;67584;51.400;6.692;2024-01-27T12:44:48;8.10;;;3.63;;
78324;SDS011;67584;51.400;6.692;2024-01-27T12:47:14;8.45;;;3.53;;
78324;SDS011;67584;51.400;6.692;2024-01-27T12:49:40;10.40;;;3.20;;
78324;SDS011;67584;51.400;6.692;2024-01-27T12:52:08;5.55;;;2.47;;
78324;SDS011;67584;51.400;6.692;2024-01-27T12:54:34;5.20;;;2.75;;
78324;SDS011;67584;51.400;6.692;2024-01-27T12:57:00;6.35;;;3.30;;
78324;SDS011;67584;51.400;6.692;2024-01-27T12:59:26;9.23;;;3.03;;
78324;SDS011;67584;51.400;6.692;2024-01-27T13:01:53;2.97;;;2.42;;
78324;SDS011;67584;51.400;6.692;2024-01-27T13:04:19;6.75;;;3.45;;
78324;SDS011;67584;51.400;6.692;2024-01-27T13:06:45;9.60;;;4.22;;
78324;SDS011;67584;51.400;6.692;2024-01-27T13:09:10;7.50;;;3.72;;
78324;SDS011;67584;51.400;6.692;2024-01-27T13:11:37;8.13;;;3.10;;
78324;SDS011;67584;51.400;6.692;2024-01-27T13:14:03;5.88;;;2.17;;
78324;SDS011;67584;51.400;6.692;2024-01-27T13:16:29;6.93;;;2.92;;
78324;SDS011;67584;51.400;6.692;2024-01-27T13:18:55;9.00;;;2.50;;
78324;SDS011;67584;51.400;6.692;2024-01-27T13:21:21;3.80;;;2.17;;
78324;SDS011;67584;51.400;6.692;2024-01-27T13:23:46;8.43;;;2.92;;
78324;SDS011;67584;51.400;6.692;2024-01-27T13:26:12;8.35;;;2.90;;
78324;SDS011;67584;51.400;6.692;2024-01-27T13:28:38;9.85;;;3.15;;
78324;SDS011;67584;51.400;6.692;2024-01-27T13:31:04;6.10;;;2.92;;
78324;SDS011;67584;51.400;6.692;2024-01-27T13:33:30;7.07;;;2.92;;
78324;SDS011;67584;51.400;6.692;2024-01-27T13:35:55;6.82;;;3.30;;
78324;SDS011;67584;51.400;6.692;2024-01-27T13:38:21;7.57;;;3.05;;
78324;SDS011;67584;51.400;6.692;2024-01-27T13:40:51;6.65;;;2.63;;
78324;SDS011;67584;51.400;6.692;2024-01-27T13:43:17;7.60;;;4.15;;
78324;SDS011;67584;51.400;6.692;2024-01-27T13:45:42;8.75;;;2.63;;
78324;SDS011;67584;51.400;6.692;2024-01-27T13:48:09;8.38;;;2.58;;
78324;SDS011;67584;51.400;6.692;2024-01-27T13:50:35;7.00;;;2.45;;
78324;SDS011;67584;51.400;6.692;2024-01-27T13:53:01;6.20;;;2.70;;
78324;SDS011;67584;51.400;6.692;2024-01-27T13:55:27;7.90;;;2.47;;
78324;SDS011;67584;51.400;6.692;2024-01-27T13:57:52;7.25;;;2.70;;
78324;SDS011;67584;51.400;6.692;2024-01-27T14:00:18;8.52;;;3.05;;
78324;SDS011;67584;51.400;6.692;2024-01-27T14:02:44;3.67;;;2.30;;
78324;SDS011;67584;51.400;6.692;2024-01-27T14:05:10;9.35;;;3.60;;
78324;SDS011;67584;51.400;6.692;2024-01-27T14:07:36;6.07;;;2.65;;
78324;SDS011;67584;51.400;6.692;2024-01-27T14:10:01;6.30;;;2.58;;
78324;SDS011;67584;51.400;6.692;2024-01-27T14:12:27;8.00;;;2.80;;
78324;SDS011;67584;51.400;6.692;2024-01-27T14:14:55;8.40;;;2.70;;
78324;SDS011;67584;51.400;6.692;2024-01-27T14:17:28;6.90;;;2.65;;
78324;SDS011;67584;51.400;6.692;2024-01-27T14:19:54;7.82;;;2.50;;
78324;SDS011;67584;51.400;6.692;2024-01-27T14:22:19;5.43;;;2.17;;
78324;SDS011;67584;51.400;6.692;2024-01-27T14:24:45;7.38;;;2.30;;
78324;SDS011;67584;51.400;6.692;2024-01-27T14:27:11;6.70;;;2.45;;
78324;SDS011;67584;51.400;6.692;2024-01-27T14:29:39;5.13;;;2.53;;
78324;SDS011;67584;51.400;6.692;2024-01-27T14:32:05;7.15;;;2.42;;
78324;SDS011;67584;51.400;6.692;2024-01-27T14:34:32;8.43;;;2.33;;
78324;SDS011;67584;51.400;6.692;2024-01-27T14:36:57;7.55;;;3.20;;
78324;SDS011;67584;51.400;6.692;2024-01-27T14:39:24;5.82;;;2.45;;
78324;SDS011;67584;51.400;6.692;2024-01-27T14:41:50;7.45;;;2.58;;
78324;SDS011;67584;51.400;6.692;2024-01-27T14:44:15;5.22;;;2.58;;
78324;SDS011;67584;51.400;6.692;2024-01-27T14:46:41;9.30;;;2.97;;
78324;SDS011;67584;51.400;6.692;2024-01-27T14:49:07;5.03;;;2.30;;